sensor_id;sensor_type;location;lat;lon;timestamp;temperature;humidity
71096;DHT22;58753;49.440;11.126;2023-06-22T00:01:03;18.44;86.04
71096;DHT22;58753;49.440;11.126;2023-06-22T00:03:28;18.40;85.94
71096;DHT22;58753;49.440;11.126;2023-06-22T00:05:54;18.32;85.89
71096;DHT22;58753;49.440;11.126;2023-06-22T00:08:19;18.25;85.92
71096;DHT22;58753;49.440;11.126;2023-06-22T00:10:45;18.17;85.78
71096;DHT22;58753;49.440;11.126;2023-06-22T00:13:12;18.16;86.23
71096;DHT22;58753;49.440;11.126;2023-06-22T00:15:39;18.09;86.14
71096;DHT22;58753;49.440;11.126;2023-06-22T00:18:06;18.09;86.33
71096;DHT22;58753;49.440;11.126;2023-06-22T00:20:32;18.10;86.44
71096;DHT22;58753;49.440;11.126;2023-06-22T00:23:01;18.07;86.24
71096;DHT22;58753;49.440;11.126;2023-06-22T00:25:28;18.03;86.29
71096;DHT22;58753;49.440;11.126;2023-06-22T00:27:53;18.03;86.51
71096;DHT22;58753;49.440;11.126;2023-06-22T00:30:19;18.06;86.63
71096;DHT22;58753;49.440;11.126;2023-06-22T00:32:45;18.07;86.73
71096;DHT22;58753;49.440;11.126;2023-06-22T00:35:11;18.09;86.68
71096;DHT22;58753;49.440;11.126;2023-06-22T00:37:37;18.13;86.69
71096;DHT22;58753;49.440;11.126;2023-06-22T00:40:03;18.10;86.59
71096;DHT22;58753;49.440;11.126;2023-06-22T00:42:30;18.09;86.68
71096;DHT22;58753;49.440;11.126;2023-06-22T00:44:55;18.10;86.80
71096;DHT22;58753;49.440;11.126;2023-06-22T00:47:21;18.09;86.68
71096;DHT22;58753;49.440;11.126;2023-06-22T00:49:47;18.06;86.65
71096;DHT22;58753;49.440;11.126;2023-06-22T00:52:17;17.99;86.66
71096;DHT22;58753;49.440;11.126;2023-06-22T00:54:47;17.96;86.78
71096;DHT22;58753;49.440;11.126;2023-06-22T00:57:14;17.93;86.65
71096;DHT22;58753;49.440;11.126;2023-06-22T00:59:43;17.89;86.71
71096;DHT22;58753;49.440;11.126;2023-06-22T01:02:09;17.86;86.71
71096;DHT22;58753;49.440;11.126;2023-06-22T01:04:36;17.81;86.55
71096;DHT22;58753;49.440;11.126;2023-06-22T01:10:07;17.74;86.65
71096;DHT22;58753;49.440;11.126;2023-06-22T01:12:38;17.69;86.75
71096;DHT22;58753;49.440;11.126;2023-06-22T01:15:11;17.68;86.92
71096;DHT22;58753;49.440;11.126;2023-06-22T01:17:40;17.64;86.71
71096;DHT22;58753;49.440;11.126;2023-06-22T01:20:08;17.62;86.78
71096;DHT22;58753;49.440;11.126;2023-06-22T01:22:46;17.58;86.90
71096;DHT22;58753;49.440;11.126;2023-06-22T01:25:30;17.54;86.74
71096;DHT22;58753;49.440;11.126;2023-06-22T01:28:10;17.49;86.83
71096;DHT22;58753;49.440;11.126;2023-06-22T01:30:41;17.44;86.85
71096;DHT22;58753;49.440;11.126;2023-06-22T01:33:10;17.39;87.01
71096;DHT22;58753;49.440;11.126;2023-06-22T01:35:37;17.38;87.04
71096;DHT22;58753;49.440;11.126;2023-06-22T01:38:03;17.39;87.33
71096;DHT22;58753;49.440;11.126;2023-06-22T01:40:29;17.45;87.41
71096;DHT22;58753;49.440;11.126;2023-06-22T01:42:55;17.46;87.57
71096;DHT22;58753;49.440;11.126;2023-06-22T01:45:21;17.51;87.57
71096;DHT22;58753;49.440;11.126;2023-06-22T01:47:47;17.55;87.82
71096;DHT22;58753;49.440;11.126;2023-06-22T01:50:12;17.59;87.79
71096;DHT22;58753;49.440;11.126;2023-06-22T01:52:38;17.64;87.97
71096;DHT22;58753;49.440;11.126;2023-06-22T01:55:03;17.66;87.96
71096;DHT22;58753;49.440;11.126;2023-06-22T01:57:31;17.68;87.99
71096;DHT22;58753;49.440;11.126;2023-06-22T02:00:01;17.68;87.83
71096;DHT22;58753;49.440;11.126;2023-06-22T02:02:32;17.64;87.82
71096;DHT22;58753;49.440;11.126;2023-06-22T02:05:03;17.64;87.96
71096;DHT22;58753;49.440;11.126;2023-06-22T02:07:41;17.62;88.04
71096;DHT22;58753;49.440;11.126;2023-06-22T02:10:09;17.59;87.84
71096;DHT22;58753;49.440;11.126;2023-06-22T02:12:37;17.55;88.03
71096;DHT22;58753;49.440;11.126;2023-06-22T02:15:04;17.55;88.11
71096;DHT22;58753;49.440;11.126;2023-06-22T02:17:30;17.54;88.15
71096;DHT22;58753;49.440;11.126;2023-06-22T02:19:58;17.54;88.22
71096;DHT22;58753;49.440;11.126;2023-06-22T02:22:23;17.52;88.20
71096;DHT22;58753;49.440;11.126;2023-06-22T02:24:49;17.48;88.06
71096;DHT22;58753;49.440;11.126;2023-06-22T02:27:14;17.46;88.17
71096;DHT22;58753;49.440;11.126;2023-06-22T02:29:40;17.46;88.35
71096;DHT22;58753;49.440;11.126;2023-06-22T02:32:05;17.46;88.42
71096;DHT22;58753;49.440;11.126;2023-06-22T02:34:31;17.46;88.35
71096;DHT22;58753;49.440;11.126;2023-06-22T02:36:59;17.48;88.43
71096;DHT22;58753;49.440;11.126;2023-06-22T02:39:27;17.48;88.35
71096;DHT22;58753;49.440;11.126;2023-06-22T02:41:53;17.42;88.25
71096;DHT22;58753;49.440;11.126;2023-06-22T02:44:20;17.39;88.28
71096;DHT22;58753;49.440;11.126;2023-06-22T02:46:46;17.39;88.63
71096;DHT22;58753;49.440;11.126;2023-06-22T02:49:12;17.42;88.54
71096;DHT22;58753;49.440;11.126;2023-06-22T02:51:39;17.41;88.54
71096;DHT22;58753;49.440;11.126;2023-06-22T02:54:05;17.46;88.64
71096;DHT22;58753;49.440;11.126;2023-06-22T02:56:31;17.45;88.74
71096;DHT22;58753;49.440;11.126;2023-06-22T02:58:57;17.48;88.84
71096;DHT22;58753;49.440;11.126;2023-06-22T03:01:29;17.54;89.04
71096;DHT22;58753;49.440;11.126;2023-06-22T03:03:58;17.62;88.89
71096;DHT22;58753;49.440;11.126;2023-06-22T03:06:24;17.65;88.92
71096;DHT22;58753;49.440;11.126;2023-06-22T03:08:57;17.69;88.84
71096;DHT22;58753;49.440;11.126;2023-06-22T03:11:22;17.72;88.91
71096;DHT22;58753;49.440;11.126;2023-06-22T03:13:48;17.78;88.82
71096;DHT22;58753;49.440;11.126;2023-06-22T03:16:13;17.79;88.80
71096;DHT22;58753;49.440;11.126;2023-06-22T03:18:38;17.76;88.78
71096;DHT22;58753;49.440;11.126;2023-06-22T03:21:04;17.81;88.65
71096;DHT22;58753;49.440;11.126;2023-06-22T03:23:29;17.82;88.68
71096;DHT22;58753;49.440;11.126;2023-06-22T03:25:54;17.82;88.62
71096;DHT22;58753;49.440;11.126;2023-06-22T03:28:21;17.82;88.67
71096;DHT22;58753;49.440;11.126;2023-06-22T03:30:46;17.82;88.65
71096;DHT22;58753;49.440;11.126;2023-06-22T03:33:12;17.79;88.60
71096;DHT22;58753;49.440;11.126;2023-06-22T03:35:37;17.79;88.59
71096;DHT22;58753;49.440;11.126;2023-06-22T03:38:03;17.78;88.59
71096;DHT22;58753;49.440;11.126;2023-06-22T03:40:29;17.76;88.59
71096;DHT22;58753;49.440;11.126;2023-06-22T03:42:55;17.76;88.58
71096;DHT22;58753;49.440;11.126;2023-06-22T03:45:20;17.72;88.58
71096;DHT22;58753;49.440;11.126;2023-06-22T03:47:45;17.74;88.57
71096;DHT22;58753;49.440;11.126;2023-06-22T03:50:11;17.75;88.64
71096;DHT22;58753;49.440;11.126;2023-06-22T03:52:36;17.76;88.70
71096;DHT22;58753;49.440;11.126;2023-06-22T03:55:02;17.75;88.71
71096;DHT22;58753;49.440;11.126;2023-06-22T03:57:27;17.78;88.72
71096;DHT22;58753;49.440;11.126;2023-06-22T03:59:56;17.79;88.57
71096;DHT22;58753;49.440;11.126;2023-06-22T04:02:21;17.76;88.74
71096;DHT22;58753;49.440;11.126;2023-06-22T04:04:46;17.75;88.75
71096;DHT22;58753;49.440;11.126;2023-06-22T04:07:12;17.78;88.79
71096;DHT22;58753;49.440;11.126;2023-06-22T04:09:37;17.79;88.64
71096;DHT22;58753;49.440;11.126;2023-06-22T04:12:03;17.78;88.78
71096;DHT22;58753;49.440;11.126;2023-06-22T04:14:28;17.81;88.78
71096;DHT22;58753;49.440;11.126;2023-06-22T04:16:54;17.82;88.81
71096;DHT22;58753;49.440;11.126;2023-06-22T04:19:19;17.86;88.86
71096;DHT22;58753;49.440;11.126;2023-06-22T04:21:45;17.85;88.91
71096;DHT22;58753;49.440;11.126;2023-06-22T04:24:14;17.87;88.82
71096;DHT22;58753;49.440;11.126;2023-06-22T04:26:39;17.89;88.78
71096;DHT22;58753;49.440;11.126;2023-06-22T04:29:07;17.89;88.82
71096;DHT22;58753;49.440;11.126;2023-06-22T04:31:34;17.92;88.84
71096;DHT22;58753;49.440;11.126;2023-06-22T04:34:02;17.93;88.65
71096;DHT22;58753;49.440;11.126;2023-06-22T04:36:41;17.89;88.39
71096;DHT22;58753;49.440;11.126;2023-06-22T04:39:10;17.83;88.37
71096;DHT22;58753;49.440;11.126;2023-06-22T04:41:37;17.82;88.37
71096;DHT22;58753;49.440;11.126;2023-06-22T04:44:12;17.86;88.63
71096;DHT22;58753;49.440;11.126;2023-06-22T04:46:39;17.92;88.73
71096;DHT22;58753;49.440;11.126;2023-06-22T04:49:08;17.95;88.61
71096;DHT22;58753;49.440;11.126;2023-06-22T04:51:41;17.97;88.58
71096;DHT22;58753;49.440;11.126;2023-06-22T04:54:07;17.96;88.41
71096;DHT22;58753;49.440;11.126;2023-06-22T04:56:33;18.00;88.54
71096;DHT22;58753;49.440;11.126;2023-06-22T04:58:59;18.05;88.52
71096;DHT22;58753;49.440;11.126;2023-06-22T05:01:25;18.10;88.54
71096;DHT22;58753;49.440;11.126;2023-06-22T05:03:51;18.13;88.43
71096;DHT22;58753;49.440;11.126;2023-06-22T05:06:21;18.16;88.37
71096;DHT22;58753;49.440;11.126;2023-06-22T05:08:50;18.22;88.29
71096;DHT22;58753;49.440;11.126;2023-06-22T05:11:15;18.26;88.35
71096;DHT22;58753;49.440;11.126;2023-06-22T05:13:40;18.30;88.34
71096;DHT22;58753;49.440;11.126;2023-06-22T05:16:06;18.43;88.42
71096;DHT22;58753;49.440;11.126;2023-06-22T05:18:31;18.50;88.40
71096;DHT22;58753;49.440;11.126;2023-06-22T05:20:58;18.58;88.38
71096;DHT22;58753;49.440;11.126;2023-06-22T05:23:23;18.65;88.09
71096;DHT22;58753;49.440;11.126;2023-06-22T05:25:49;18.75;88.03
71096;DHT22;58753;49.440;11.126;2023-06-22T05:28:14;18.83;87.95
71096;DHT22;58753;49.440;11.126;2023-06-22T05:30:39;18.92;87.95
71096;DHT22;58753;49.440;11.126;2023-06-22T05:33:05;19.02;87.79
71096;DHT22;58753;49.440;11.126;2023-06-22T05:35:30;19.15;87.77
71096;DHT22;58753;49.440;11.126;2023-06-22T05:37:56;19.26;87.64
71096;DHT22;58753;49.440;11.126;2023-06-22T05:40:21;19.39;87.43
71096;DHT22;58753;49.440;11.126;2023-06-22T05:42:47;19.49;87.33
71096;DHT22;58753;49.440;11.126;2023-06-22T05:45:12;19.61;87.19
71096;DHT22;58753;49.440;11.126;2023-06-22T05:47:38;19.72;87.04
71096;DHT22;58753;49.440;11.126;2023-06-22T05:50:05;19.77;86.82
71096;DHT22;58753;49.440;11.126;2023-06-22T05:52:34;19.89;86.66
71096;DHT22;58753;49.440;11.126;2023-06-22T05:54:59;19.96;86.45
71096;DHT22;58753;49.440;11.126;2023-06-22T05:57:24;20.06;86.33
71096;DHT22;58753;49.440;11.126;2023-06-22T05:59:50;20.20;86.20
71096;DHT22;58753;49.440;11.126;2023-06-22T06:02:15;20.27;85.98
71096;DHT22;58753;49.440;11.126;2023-06-22T06:04:41;20.37;85.82
71096;DHT22;58753;49.440;11.126;2023-06-22T06:07:06;20.45;85.59
71096;DHT22;58753;49.440;11.126;2023-06-22T06:09:32;20.55;85.42
71096;DHT22;58753;49.440;11.126;2023-06-22T06:11:57;20.65;85.27
71096;DHT22;58753;49.440;11.126;2023-06-22T06:14:22;20.72;84.98
71096;DHT22;58753;49.440;11.126;2023-06-22T06:16:49;20.77;84.74
71096;DHT22;58753;49.440;11.126;2023-06-22T06:19:14;20.82;84.58
71096;DHT22;58753;49.440;11.126;2023-06-22T06:21:39;20.89;84.42
71096;DHT22;58753;49.440;11.126;2023-06-22T06:24:05;20.94;84.37
71096;DHT22;58753;49.440;11.126;2023-06-22T06:26:30;21.03;84.16
71096;DHT22;58753;49.440;11.126;2023-06-22T06:29:00;21.15;83.97
71096;DHT22;58753;49.440;11.126;2023-06-22T06:31:25;21.22;83.58
71096;DHT22;58753;49.440;11.126;2023-06-22T06:33:54;21.30;83.28
71096;DHT22;58753;49.440;11.126;2023-06-22T06:36:19;21.43;82.91
71096;DHT22;58753;49.440;11.126;2023-06-22T06:38:45;21.53;82.84
71096;DHT22;58753;49.440;11.126;2023-06-22T06:41:15;21.63;82.49
71096;DHT22;58753;49.440;11.126;2023-06-22T06:43:41;21.74;82.32
71096;DHT22;58753;49.440;11.126;2023-06-22T06:46:08;21.83;81.92
71096;DHT22;58753;49.440;11.126;2023-06-22T06:48:33;21.94;81.28
71096;DHT22;58753;49.440;11.126;2023-06-22T06:50:59;22.08;81.01
71096;DHT22;58753;49.440;11.126;2023-06-22T06:53:24;22.22;80.92
71096;DHT22;58753;49.440;11.126;2023-06-22T06:55:50;22.30;80.49
71096;DHT22;58753;49.440;11.126;2023-06-22T06:58:15;22.35;80.15
71096;DHT22;58753;49.440;11.126;2023-06-22T07:00:41;22.44;79.98
71096;DHT22;58753;49.440;11.126;2023-06-22T07:03:08;22.44;79.47
71096;DHT22;58753;49.440;11.126;2023-06-22T07:05:33;22.44;79.19
71096;DHT22;58753;49.440;11.126;2023-06-22T07:07:59;22.51;78.93
71096;DHT22;58753;49.440;11.126;2023-06-22T07:10:24;22.61;78.29
71096;DHT22;58753;49.440;11.126;2023-06-22T07:12:50;22.79;77.32
71096;DHT22;58753;49.440;11.126;2023-06-22T07:15:15;22.94;76.60
71096;DHT22;58753;49.440;11.126;2023-06-22T07:17:40;23.06;76.12
71096;DHT22;58753;49.440;11.126;2023-06-22T07:20:07;23.17;75.91
71096;DHT22;58753;49.440;11.126;2023-06-22T07:22:41;23.20;75.43
71096;DHT22;58753;49.440;11.126;2023-06-22T07:25:07;23.17;75.05
71096;DHT22;58753;49.440;11.126;2023-06-22T07:27:43;23.23;74.87
71096;DHT22;58753;49.440;11.126;2023-06-22T07:30:10;23.22;74.30
71096;DHT22;58753;49.440;11.126;2023-06-22T07:32:36;23.26;74.20
71096;DHT22;58753;49.440;11.126;2023-06-22T07:35:02;23.31;73.91
71096;DHT22;58753;49.440;11.126;2023-06-22T07:37:28;23.39;73.91
71096;DHT22;58753;49.440;11.126;2023-06-22T07:39:55;23.49;73.61
71096;DHT22;58753;49.440;11.126;2023-06-22T07:42:27;23.59;73.11
71096;DHT22;58753;49.440;11.126;2023-06-22T07:44:53;23.67;72.31
71096;DHT22;58753;49.440;11.126;2023-06-22T07:47:18;23.78;71.87
71096;DHT22;58753;49.440;11.126;2023-06-22T07:49:45;23.80;71.21
71096;DHT22;58753;49.440;11.126;2023-06-22T07:52:10;23.85;70.64
71096;DHT22;58753;49.440;11.126;2023-06-22T07:54:36;23.90;70.05
71096;DHT22;58753;49.440;11.126;2023-06-22T07:57:02;23.96;69.70
71096;DHT22;58753;49.440;11.126;2023-06-22T07:59:27;24.05;69.13
71096;DHT22;58753;49.440;11.126;2023-06-22T08:01:52;24.18;68.77
71096;DHT22;58753;49.440;11.126;2023-06-22T08:04:18;24.22;68.15
71096;DHT22;58753;49.440;11.126;2023-06-22T08:06:43;24.26;67.67
71096;DHT22;58753;49.440;11.126;2023-06-22T08:09:08;24.36;67.61
71096;DHT22;58753;49.440;11.126;2023-06-22T08:11:34;24.48;67.35
71096;DHT22;58753;49.440;11.126;2023-06-22T08:13:59;24.59;66.67
71096;DHT22;58753;49.440;11.126;2023-06-22T08:16:25;24.61;66.10
71096;DHT22;58753;49.440;11.126;2023-06-22T08:18:50;24.71;65.84
71096;DHT22;58753;49.440;11.126;2023-06-22T08:21:15;24.82;65.56
71096;DHT22;58753;49.440;11.126;2023-06-22T08:23:42;24.94;65.31
71096;DHT22;58753;49.440;11.126;2023-06-22T08:26:07;25.09;64.80
71096;DHT22;58753;49.440;11.126;2023-06-22T08:28:32;25.24;64.25
71096;DHT22;58753;49.440;11.126;2023-06-22T08:30:59;25.34;63.73
71096;DHT22;58753;49.440;11.126;2023-06-22T08:33:25;25.48;63.27
71096;DHT22;58753;49.440;11.126;2023-06-22T08:35:57;25.61;62.67
71096;DHT22;58753;49.440;11.126;2023-06-22T08:38:23;25.64;62.13
71096;DHT22;58753;49.440;11.126;2023-06-22T08:40:48;25.63;61.90
71096;DHT22;58753;49.440;11.126;2023-06-22T08:43:14;25.66;61.60
71096;DHT22;58753;49.440;11.126;2023-06-22T08:45:39;25.68;61.43
71096;DHT22;58753;49.440;11.126;2023-06-22T08:48:05;25.84;60.47
71096;DHT22;58753;49.440;11.126;2023-06-22T08:50:30;25.97;60.09
71096;DHT22;58753;49.440;11.126;2023-06-22T08:52:56;26.02;59.62
71096;DHT22;58753;49.440;11.126;2023-06-22T08:55:21;26.18;59.78
71096;DHT22;58753;49.440;11.126;2023-06-22T08:57:46;26.19;59.38
71096;DHT22;58753;49.440;11.126;2023-06-22T09:00:12;26.24;59.27
71096;DHT22;58753;49.440;11.126;2023-06-22T09:02:46;26.28;58.97
71096;DHT22;58753;49.440;11.126;2023-06-22T09:05:11;26.38;58.44
71096;DHT22;58753;49.440;11.126;2023-06-22T09:07:37;26.48;57.88
71096;DHT22;58753;49.440;11.126;2023-06-22T09:10:02;26.60;57.11
71096;DHT22;58753;49.440;11.126;2023-06-22T09:12:30;26.63;56.71
71096;DHT22;58753;49.440;11.126;2023-06-22T09:14:56;26.75;56.77
71096;DHT22;58753;49.440;11.126;2023-06-22T09:17:22;26.87;56.34
71096;DHT22;58753;49.440;11.126;2023-06-22T09:19:47;27.01;56.01
71096;DHT22;58753;49.440;11.126;2023-06-22T09:22:14;27.11;55.57
71096;DHT22;58753;49.440;11.126;2023-06-22T09:24:39;27.21;55.31
71096;DHT22;58753;49.440;11.126;2023-06-22T09:27:05;27.23;55.48
71096;DHT22;58753;49.440;11.126;2023-06-22T09:29:30;27.41;55.25
71096;DHT22;58753;49.440;11.126;2023-06-22T09:31:59;27.54;54.55
71096;DHT22;58753;49.440;11.126;2023-06-22T09:34:25;27.59;54.21
71096;DHT22;58753;49.440;11.126;2023-06-22T09:36:50;27.59;54.34
71096;DHT22;58753;49.440;11.126;2023-06-22T09:39:17;27.64;54.21
71096;DHT22;58753;49.440;11.126;2023-06-22T09:41:42;27.72;53.67
71096;DHT22;58753;49.440;11.126;2023-06-22T09:44:08;27.86;52.54
71096;DHT22;58753;49.440;11.126;2023-06-22T09:46:33;27.98;51.76
71096;DHT22;58753;49.440;11.126;2023-06-22T09:48:59;28.09;51.69
71096;DHT22;58753;49.440;11.126;2023-06-22T09:51:24;28.16;51.79
71096;DHT22;58753;49.440;11.126;2023-06-22T09:53:50;28.29;51.62
71096;DHT22;58753;49.440;11.126;2023-06-22T09:56:16;28.37;51.11
71096;DHT22;58753;49.440;11.126;2023-06-22T09:58:42;28.52;50.82
71096;DHT22;58753;49.440;11.126;2023-06-22T10:01:08;28.60;50.78
71096;DHT22;58753;49.440;11.126;2023-06-22T10:03:33;28.70;50.86
71096;DHT22;58753;49.440;11.126;2023-06-22T10:05:59;28.76;50.66
71096;DHT22;58753;49.440;11.126;2023-06-22T10:08:24;28.69;50.58
71096;DHT22;58753;49.440;11.126;2023-06-22T10:10:49;28.71;50.81
71096;DHT22;58753;49.440;11.126;2023-06-22T10:13:15;28.76;50.69
71096;DHT22;58753;49.440;11.126;2023-06-22T10:15:41;28.81;50.63
71096;DHT22;58753;49.440;11.126;2023-06-22T10:18:07;28.93;50.56
71096;DHT22;58753;49.440;11.126;2023-06-22T10:20:32;29.01;49.77
71096;DHT22;58753;49.440;11.126;2023-06-22T10:22:58;29.12;48.87
71096;DHT22;58753;49.440;11.126;2023-06-22T10:25:23;29.25;48.39
71096;DHT22;58753;49.440;11.126;2023-06-22T10:27:50;29.34;48.35
71096;DHT22;58753;49.440;11.126;2023-06-22T10:30:16;29.28;48.43
71096;DHT22;58753;49.440;11.126;2023-06-22T10:32:42;29.42;48.42
71096;DHT22;58753;49.440;11.126;2023-06-22T10:35:10;29.52;48.41
71096;DHT22;58753;49.440;11.126;2023-06-22T10:37:38;29.61;48.56
71096;DHT22;58753;49.440;11.126;2023-06-22T10:40:04;29.69;48.26
71096;DHT22;58753;49.440;11.126;2023-06-22T10:42:30;29.81;47.82
71096;DHT22;58753;49.440;11.126;2023-06-22T10:44:56;29.93;47.57
71096;DHT22;58753;49.440;11.126;2023-06-22T10:47:21;30.02;47.10
71096;DHT22;58753;49.440;11.126;2023-06-22T10:49:46;30.12;46.50
71096;DHT22;58753;49.440;11.126;2023-06-22T10:52:12;30.16;45.69
71096;DHT22;58753;49.440;11.126;2023-06-22T10:54:37;30.24;45.94
71096;DHT22;58753;49.440;11.126;2023-06-22T10:57:03;30.17;45.72
71096;DHT22;58753;49.440;11.126;2023-06-22T10:59:29;30.19;45.55
71096;DHT22;58753;49.440;11.126;2023-06-22T11:01:58;30.30;45.76
71096;DHT22;58753;49.440;11.126;2023-06-22T11:04:23;30.50;45.83
71096;DHT22;58753;49.440;11.126;2023-06-22T11:06:49;30.71;45.40
71096;DHT22;58753;49.440;11.126;2023-06-22T11:09:16;30.83;45.01
71096;DHT22;58753;49.440;11.126;2023-06-22T11:11:45;30.81;44.83
71096;DHT22;58753;49.440;11.126;2023-06-22T11:14:11;30.86;45.15
71096;DHT22;58753;49.440;11.126;2023-06-22T11:16:36;30.95;44.95
71096;DHT22;58753;49.440;11.126;2023-06-22T11:19:02;31.02;44.63
71096;DHT22;58753;49.440;11.126;2023-06-22T11:21:28;31.04;44.38
71096;DHT22;58753;49.440;11.126;2023-06-22T11:23:53;31.11;44.65
71096;DHT22;58753;49.440;11.126;2023-06-22T11:26:19;31.27;44.37
71096;DHT22;58753;49.440;11.126;2023-06-22T11:28:46;31.37;44.35
71096;DHT22;58753;49.440;11.126;2023-06-22T11:31:11;31.43;44.40
71096;DHT22;58753;49.440;11.126;2023-06-22T11:33:37;31.43;44.45
71096;DHT22;58753;49.440;11.126;2023-06-22T11:36:02;31.38;44.70
71096;DHT22;58753;49.440;11.126;2023-06-22T11:38:27;31.29;44.71
71096;DHT22;58753;49.440;11.126;2023-06-22T11:40:53;31.37;44.86
71096;DHT22;58753;49.440;11.126;2023-06-22T11:43:18;31.37;44.69
71096;DHT22;58753;49.440;11.126;2023-06-22T11:45:43;31.55;44.65
71096;DHT22;58753;49.440;11.126;2023-06-22T11:48:09;31.70;43.80
71096;DHT22;58753;49.440;11.126;2023-06-22T11:50:34;31.86;43.80
71096;DHT22;58753;49.440;11.126;2023-06-22T11:53:02;31.89;43.48
71096;DHT22;58753;49.440;11.126;2023-06-22T11:55:27;31.90;43.65
71096;DHT22;58753;49.440;11.126;2023-06-22T11:57:55;31.92;43.50
71096;DHT22;58753;49.440;11.126;2023-06-22T12:00:23;32.02;43.13
71096;DHT22;58753;49.440;11.126;2023-06-22T12:02:50;32.22;43.36
71096;DHT22;58753;49.440;11.126;2023-06-22T12:05:18;32.24;43.06
71096;DHT22;58753;49.440;11.126;2023-06-22T12:07:43;32.31;42.96
71096;DHT22;58753;49.440;11.126;2023-06-22T12:10:09;32.40;43.17
71096;DHT22;58753;49.440;11.126;2023-06-22T12:12:34;32.47;42.24
71096;DHT22;58753;49.440;11.126;2023-06-22T12:14:59;32.64;42.78
71096;DHT22;58753;49.440;11.126;2023-06-22T12:17:28;32.75;42.31
71096;DHT22;58753;49.440;11.126;2023-06-22T12:19:54;32.80;42.53
71096;DHT22;58753;49.440;11.126;2023-06-22T12:22:19;32.77;42.03
71096;DHT22;58753;49.440;11.126;2023-06-22T12:24:44;32.78;41.58
71096;DHT22;58753;49.440;11.126;2023-06-22T12:27:10;32.91;41.48
71096;DHT22;58753;49.440;11.126;2023-06-22T12:29:35;32.87;41.37
71096;DHT22;58753;49.440;11.126;2023-06-22T12:32:01;32.60;41.67
71096;DHT22;58753;49.440;11.126;2023-06-22T12:34:26;32.43;41.79
71096;DHT22;58753;49.440;11.126;2023-06-22T12:36:51;32.26;41.91
71096;DHT22;58753;49.440;11.126;2023-06-22T12:39:19;32.24;42.20
71096;DHT22;58753;49.440;11.126;2023-06-22T12:41:45;32.51;41.85
71096;DHT22;58753;49.440;11.126;2023-06-22T12:44:10;32.78;41.79
71096;DHT22;58753;49.440;11.126;2023-06-22T12:46:36;33.01;41.78
71096;DHT22;58753;49.440;11.126;2023-06-22T12:49:06;33.01;41.70
71096;DHT22;58753;49.440;11.126;2023-06-22T12:51:31;33.03;41.59
71096;DHT22;58753;49.440;11.126;2023-06-22T12:53:56;32.98;41.58
71096;DHT22;58753;49.440;11.126;2023-06-22T12:56:22;32.94;41.21
71096;DHT22;58753;49.440;11.126;2023-06-22T12:58:48;33.01;40.18
71096;DHT22;58753;49.440;11.126;2023-06-22T13:01:13;32.95;39.90
71096;DHT22;58753;49.440;11.126;2023-06-22T13:03:39;32.90;40.41
71096;DHT22;58753;49.440;11.126;2023-06-22T13:06:04;33.10;40.78
71096;DHT22;58753;49.440;11.126;2023-06-22T13:08:29;33.26;40.61
71096;DHT22;58753;49.440;11.126;2023-06-22T13:10:55;33.17;39.73
71096;DHT22;58753;49.440;11.126;2023-06-22T13:13:23;32.98;39.31
71096;DHT22;58753;49.440;11.126;2023-06-22T13:15:55;32.81;39.56
71096;DHT22;58753;49.440;11.126;2023-06-22T13:18:20;32.60;39.92
71096;DHT22;58753;49.440;11.126;2023-06-22T13:20:45;32.40;40.13
71096;DHT22;58753;49.440;11.126;2023-06-22T13:23:11;32.45;40.82
71096;DHT22;58753;49.440;11.126;2023-06-22T13:25:37;32.53;41.39
71096;DHT22;58753;49.440;11.126;2023-06-22T13:28:02;32.78;41.75
71096;DHT22;58753;49.440;11.126;2023-06-22T13:30:28;33.03;41.29
71096;DHT22;58753;49.440;11.126;2023-06-22T13:32:53;33.44;40.23
71096;DHT22;58753;49.440;11.126;2023-06-22T13:35:19;33.61;38.71
71096;DHT22;58753;49.440;11.126;2023-06-22T13:37:44;33.62;38.27
71096;DHT22;58753;49.440;11.126;2023-06-22T13:40:10;33.46;37.99
71096;DHT22;58753;49.440;11.126;2023-06-22T13:42:35;33.19;37.61
71096;DHT22;58753;49.440;11.126;2023-06-22T13:45:02;32.94;38.23
71096;DHT22;58753;49.440;11.126;2023-06-22T13:47:27;32.73;38.70
71096;DHT22;58753;49.440;11.126;2023-06-22T13:49:52;32.60;39.32
71096;DHT22;58753;49.440;11.126;2023-06-22T13:52:18;32.54;40.03
71096;DHT22;58753;49.440;11.126;2023-06-22T13:54:43;32.73;40.76
71096;DHT22;58753;49.440;11.126;2023-06-22T13:57:08;32.95;40.50
71096;DHT22;58753;49.440;11.126;2023-06-22T13:59:34;33.03;40.23
71096;DHT22;58753;49.440;11.126;2023-06-22T14:02:00;33.26;39.18
71096;DHT22;58753;49.440;11.126;2023-06-22T14:04:25;33.42;38.14
71096;DHT22;58753;49.440;11.126;2023-06-22T14:06:51;33.34;38.32
71096;DHT22;58753;49.440;11.126;2023-06-22T14:09:16;33.44;39.08
71096;DHT22;58753;49.440;11.126;2023-06-22T14:11:41;33.59;38.50
71096;DHT22;58753;49.440;11.126;2023-06-22T14:14:07;33.82;37.95
71096;DHT22;58753;49.440;11.126;2023-06-22T14:16:32;33.88;37.69
71096;DHT22;58753;49.440;11.126;2023-06-22T14:18:58;33.83;38.03
71096;DHT22;58753;49.440;11.126;2023-06-22T14:21:23;33.93;38.49
71096;DHT22;58753;49.440;11.126;2023-06-22T14:23:48;33.88;38.37
71096;DHT22;58753;49.440;11.126;2023-06-22T14:26:17;33.69;38.38
71096;DHT22;58753;49.440;11.126;2023-06-22T14:28:47;33.49;38.82
71096;DHT22;58753;49.440;11.126;2023-06-22T14:31:18;33.42;39.11
71096;DHT22;58753;49.440;11.126;2023-06-22T14:33:48;33.45;39.52
71096;DHT22;58753;49.440;11.126;2023-06-22T14:36:14;33.52;39.81
71096;DHT22;58753;49.440;11.126;2023-06-22T14:38:39;33.51;39.17
71096;DHT22;58753;49.440;11.126;2023-06-22T14:41:05;33.42;38.94
71096;DHT22;58753;49.440;11.126;2023-06-22T14:43:30;33.24;39.10
71096;DHT22;58753;49.440;11.126;2023-06-22T14:45:55;33.03;39.14
71096;DHT22;58753;49.440;11.126;2023-06-22T14:48:21;32.87;39.62
71096;DHT22;58753;49.440;11.126;2023-06-22T14:50:46;32.81;39.87
71096;DHT22;58753;49.440;11.126;2023-06-22T14:53:12;32.83;40.43
71096;DHT22;58753;49.440;11.126;2023-06-22T14:55:37;33.10;41.18
71096;DHT22;58753;49.440;11.126;2023-06-22T14:58:03;33.32;40.92
71096;DHT22;58753;49.440;11.126;2023-06-22T15:00:28;33.46;40.21
71096;DHT22;58753;49.440;11.126;2023-06-22T15:02:53;33.69;39.57
71096;DHT22;58753;49.440;11.126;2023-06-22T15:05:19;33.90;39.45
71096;DHT22;58753;49.440;11.126;2023-06-22T15:07:44;34.07;39.25
71096;DHT22;58753;49.440;11.126;2023-06-22T15:10:09;34.15;39.16
71096;DHT22;58753;49.440;11.126;2023-06-22T15:12:35;34.17;38.71